Time;durP1;ratioP1;P1;durP2;ratioP2;P2;SDS_P1;SDS_P2;PMS_P1;PMS_P2;Temp;Humidity;BMP_temperature;BMP_pressure;BME280_temperature;BME280_humidity;BME280_pressure;Samples;Min_cycle;Max_cycle;Signal;HPM_P1;HPM_P2
2022/01/15 00:01:49;;;;;;;18.95;6.50;;;;;;;2.25;72.21;97992.29;1778306;80;28157;-86
2022/01/15 00:04:15;;;;;;;22.00;6.47;;;;;;;2.24;72.09;97993.27;1778120;80;25803;-86
2022/01/15 00:06:42;;;;;;;16.60;6.12;;;;;;;2.21;71.99;97988.22;1778394;80;26436;-87
2022/01/15 00:09:08;;;;;;;14.80;5.83;;;;;;;2.19;71.88;97986.19;1778245;80;25778;-86
2022/01/15 00:11:35;;;;;;;17.75;6.83;;;;;;;2.17;71.91;97990.85;1778361;80;25794;-87
2022/01/15 00:14:44;;;;;;;15.15;6.00;;;;;;;2.18;71.92;97988.50;1778295;80;27517;-86
2022/01/15 00:16:45;;;;;;;16.57;6.03;;;;;;;2.17;71.70;97987.66;1748925;80;25710;-86
2022/01/15 00:21:28;;;;;;;17.75;6.40;;;;;;;2.18;71.52;97976.52;1778413;79;26493;-86
2022/01/15 00:23:54;;;;;;;16.27;6.20;;;;;;;2.17;71.41;97972.20;1778428;79;26441;-86
2022/01/15 00:26:21;;;;;;;14.23;5.50;;;;;;;2.20;71.29;97963.06;1778437;80;28130;-86
2022/01/15 00:28:48;;;;;;;15.75;6.35;;;;;;;2.19;71.20;97963.55;1778336;80;25713;-86
2022/01/15 00:31:14;;;;;;;16.87;6.03;;;;;;;2.17;71.14;97961.03;1778383;80;25773;-86
2022/01/15 00:33:41;;;;;;;12.47;5.28;;;;;;;2.14;71.09;97961.34;1774657;80;25839;-85
2022/01/15 00:36:07;;;;;;;17.82;6.03;;;;;;;2.13;70.86;97972.98;1770259;80;25765;-86
2022/01/15 00:38:34;;;;;;;16.45;5.83;;;;;;;2.08;70.60;97975.71;1770120;80;27369;-86
2022/01/15 00:41:01;;;;;;;17.92;5.53;;;;;;;2.03;70.61;97972.66;1770090;80;25755;-86
2022/01/15 00:43:28;;;;;;;15.98;5.40;;;;;;;2.03;70.66;97966.84;1770173;80;25794;-86
2022/01/15 00:45:57;;;;;;;14.80;5.72;;;;;;;1.96;70.57;97965.73;1770086;80;26691;-85
2022/01/15 00:48:23;;;;;;;19.30;6.50;;;;;;;1.98;70.64;97972.24;1769937;80;26306;-87
2022/01/15 00:50:49;;;;;;;15.70;5.47;;;;;;;1.99;70.56;97976.09;1770087;80;27458;-86
2022/01/15 00:53:16;;;;;;;14.45;5.60;;;;;;;2.00;70.56;97970.28;1769975;80;25766;-86
2022/01/15 00:55:43;;;;;;;17.52;5.08;;;;;;;1.95;70.39;97978.69;1769931;81;25647;-85
2022/01/15 00:58:10;;;;;;;17.60;5.58;;;;;;;1.95;70.39;97979.17;1770003;80;25754;-86
2022/01/15 01:00:37;;;;;;;22.10;6.03;;;;;;;1.92;70.33;97983.48;1770063;80;25734;-86
2022/01/15 01:03:05;;;;;;;18.07;5.92;;;;;;;1.93;70.39;97985.16;1770068;80;27572;-86
2022/01/15 01:05:32;;;;;;;18.77;5.75;;;;;;;1.96;70.27;97986.19;1769899;81;26381;-86
2022/01/15 01:07:59;;;;;;;13.15;6.03;;;;;;;1.96;70.22;97984.85;1770024;80;25846;-86
2022/01/15 01:13:39;;;;;;;16.07;5.75;;;;;;;1.97;70.19;97985.20;1770074;81;25675;-86
2022/01/15 01:23:50;;;;;;;18.17;5.80;;;;;;;1.76;70.10;97996.87;1770023;81;25824;-86
2022/01/15 01:29:14;;;;;;;18.17;6.50;;;;;;;1.66;70.16;98001.86;1770126;81;28163;-86
2022/01/15 01:31:37;;;;;;;11.40;5.70;;;;;;;1.68;70.12;98002.56;1767283;80;25262;-86
2022/01/15 01:34:06;;;;;;;15.38;6.78;;;;;;;1.65;70.18;98006.34;1770774;80;25952;-86
2022/01/15 01:39:09;;;;;;;15.85;6.67;;;;;;;1.55;70.13;98006.00;1775779;80;25834;-86
2022/01/15 01:41:36;;;;;;;15.70;5.90;;;;;;;1.47;70.11;98005.35;1774880;79;27389;-86
2022/01/15 01:44:02;;;;;;;23.45;7.33;;;;;;;1.44;70.19;98000.34;1774985;79;25842;-86
2022/01/15 01:48:58;;;;;;;20.62;6.22;;;;;;;1.38;70.33;98000.88;1775724;80;25925;-86
2022/01/15 01:51:39;;;;;;;19.98;6.95;;;;;;;1.41;70.39;97995.28;1775730;80;25708;-86
2022/01/15 01:54:10;;;;;;;20.43;6.62;;;;;;;1.42;70.39;97999.63;1775780;79;28266;-86
2022/01/15 01:56:38;;;;;;;25.80;7.37;;;;;;;1.37;70.27;97993.88;1775646;79;25754;-86
2022/01/15 01:59:07;;;;;;;18.37;6.62;;;;;;;1.36;70.36;98000.17;1775645;80;25711;-86
2022/01/15 02:01:34;;;;;;;19.20;6.42;;;;;;;1.35;70.23;97998.48;1775708;80;25757;-86
2022/01/15 02:04:01;;;;;;;14.80;5.60;;;;;;;1.28;70.24;97992.06;1775711;79;25904;-86
2022/01/15 02:06:27;;;;;;;16.45;5.58;;;;;;;1.26;70.28;97989.53;1775673;79;28424;-85
2022/01/15 02:08:55;;;;;;;14.68;5.75;;;;;;;1.25;70.33;97992.33;1775625;79;25739;-86
2022/01/15 02:11:24;;;;;;;14.80;5.72;;;;;;;1.28;70.42;97996.05;1775734;80;25778;-86
2022/01/15 02:13:51;;;;;;;21.05;6.45;;;;;;;1.22;70.21;97991.27;1775386;79;26568;-86
2022/01/15 02:16:18;;;;;;;16.97;5.85;;;;;;;1.12;70.20;97983.77;1775663;79;25722;-86
2022/01/15 02:18:44;;;;;;;25.32;7.28;;;;;;;1.07;70.26;97982.88;1775802;79;27464;-85
2022/01/15 02:23:44;;;;;;;39.65;13.53;;;;;;;0.86;70.23;97989.61;1775775;80;25462;-85
2022/01/15 02:26:20;;;;;;;76.17;22.75;;;;;;;0.80;70.40;97982.69;1731007;82;25791;-85
2022/01/15 02:28:54;;;;;;;62.15;18.65;;;;;;;0.68;70.40;97981.47;1736265;82;26344;-86
2022/01/15 02:31:23;;;;;;;42.15;16.40;;;;;;;0.62;70.49;97987.80;1730423;82;29184;-85
2022/01/15 02:33:53;;;;;;;38.23;12.95;;;;;;;0.52;70.56;97992.23;1734907;82;25771;-85
2022/01/15 02:36:30;;;;;;;26.73;10.20;;;;;;;0.46;70.71;97988.32;1730706;82;25688;-85
2022/01/15 02:38:57;;;;;;;26.25;10.30;;;;;;;0.42;70.80;97990.04;1721104;82;25733;-86
2022/01/15 02:41:34;;;;;;;21.62;8.70;;;;;;;0.29;70.83;97991.59;1706353;83;25747;-85
2022/01/15 02:44:05;;;;;;;27.42;9.03;;;;;;;0.23;71.00;97993.47;1696417;84;27382;-86
2022/01/15 02:49:05;;;;;;;28.92;10.08;;;;;;;0.16;71.15;97992.30;1696508;84;25784;-86
2022/01/15 02:51:35;;;;;;;41.88;12.80;;;;;;;0.12;71.29;97997.02;1739423;81;26448;-85
2022/01/15 02:54:04;;;;;;;46.08;13.95;;;;;;;0.08;71.37;97994.30;1740109;81;25759;-86
2022/01/15 02:56:37;;;;;;;44.98;13.75;;;;;;;0.02;71.38;97997.45;1733886;82;27545;-86
2022/01/15 02:59:08;;;;;;;39.50;13.90;;;;;;;0.01;71.41;98001.08;1735865;81;26331;-85
2022/01/15 03:01:34;;;;;;;34.18;11.70;;;;;;;-0.06;71.45;97997.28;1735877;82;25718;-86
2022/01/15 03:04:02;;;;;;;32.73;10.08;;;;;;;-0.12;71.50;98004.45;1735917;82;25856;-86
2022/01/15 03:06:29;;;;;;;21.73;8.78;;;;;;;-0.12;71.63;98001.80;1735846;81;25656;-85
2022/01/15 03:08:55;;;;;;;25.95;8.90;;;;;;;-0.20;71.63;98013.52;1770122;81;28283;-85
2022/01/15 03:11:23;;;;;;;24.57;8.98;;;;;;;-0.24;71.76;98011.61;1770049;79;25774;-86
2022/01/15 03:13:50;;;;;;;25.55;9.05;;;;;;;-0.28;71.83;98016.84;1769768;80;25722;-86
2022/01/15 03:16:20;;;;;;;27.45;9.65;;;;;;;-0.29;71.96;98015.64;1770116;81;25863;-87
2022/01/15 03:18:47;;;;;;;66.95;23.65;;;;;;;-0.32;72.12;98014.55;1769863;81;25778;-86
2022/01/15 03:21:14;;;;;;;69.55;22.67;;;;;;;-0.27;72.22;98020.33;1770063;80;28605;-86
2022/01/15 03:23:41;;;;;;;54.75;19.37;;;;;;;-0.31;72.14;98013.59;1735810;82;25748;-86
2022/01/15 03:26:11;;;;;;;46.15;16.27;;;;;;;-0.39;72.18;98019.06;1735909;81;25607;-86
2022/01/15 03:28:38;;;;;;;36.40;11.97;;;;;;;-0.37;72.34;98019.78;1770115;80;26557;-86
2022/01/15 03:31:04;;;;;;;33.20;11.50;;;;;;;-0.39;72.33;98015.09;1770101;80;25848;-86
2022/01/15 03:33:31;;;;;;;28.70;8.98;;;;;;;-0.37;72.41;98017.13;1770185;80;27517;-86
2022/01/15 03:35:58;;;;;;;22.60;8.73;;;;;;;-0.36;72.44;98023.25;1775062;79;25779;-86
2022/01/15 03:38:24;;;;;;;18.55;7.97;;;;;;;-0.37;72.44;98024.25;1775923;80;25786;-86
2022/01/15 03:40:54;;;;;;;22.87;8.38;;;;;;;-0.36;72.57;98022.77;1775945;79;25768;-86
2022/01/15 03:43:22;;;;;;;19.82;7.42;;;;;;;-0.25;72.75;98027.69;1775873;79;25858;-86
2022/01/15 03:45:48;;;;;;;24.30;7.78;;;;;;;-0.17;72.72;98027.87;1775824;80;27226;-86
2022/01/15 03:48:15;;;;;;;19.80;7.92;;;;;;;-0.10;72.68;98033.00;1775781;80;25281;-87
2022/01/15 03:50:41;;;;;;;19.37;7.78;;;;;;;-0.06;72.67;98029.13;1775867;80;25809;-87
2022/01/15 03:53:08;;;;;;;19.87;7.03;;;;;;;-0.05;72.59;98024.18;1775774;79;25805;-88
2022/01/15 03:55:35;;;;;;;23.05;8.00;;;;;;;-0.04;72.52;98028.52;1775771;80;25729;-88
2022/01/15 03:58:01;;;;;;;23.42;8.13;;;;;;;-0.07;72.47;98024.79;1775825;79;27499;-87
2022/01/15 04:00:29;;;;;;;25.68;8.88;;;;;;;-0.10;72.54;98031.19;1775682;80;25719;-87
2022/01/15 04:02:57;;;;;;;27.15;8.90;;;;;;;-0.09;72.63;98024.91;1775775;80;25698;-87
2022/01/15 04:05:24;;;;;;;27.42;9.78;;;;;;;-0.05;72.66;98026.83;1775744;80;26575;-86
2022/01/15 04:07:51;;;;;;;22.37;9.10;;;;;;;-0.05;72.54;98025.51;1775830;80;25753;-86
2022/01/15 04:10:18;;;;;;;20.75;8.75;;;;;;;-0.03;72.55;98037.69;1775779;80;28368;-86
2022/01/15 04:12:45;;;;;;;20.95;8.98;;;;;;;0.01;72.53;98028.95;1775732;80;26044;-86
2022/01/15 04:15:13;;;;;;;23.18;8.85;;;;;;;0.01;72.35;98030.28;1775711;80;25643;-86
2022/01/15 04:17:43;;;;;;;20.23;8.75;;;;;;;-0.02;72.27;98031.89;1775509;80;26418;-86
2022/01/15 04:20:11;;;;;;;20.02;8.73;;;;;;;-0.08;72.21;98032.39;1775608;80;25691;-87
2022/01/15 04:22:38;;;;;;;22.55;8.93;;;;;;;-0.18;72.20;98041.63;1775827;79;27461;-86
2022/01/15 04:25:06;;;;;;;20.80;9.10;;;;;;;-0.19;72.21;98045.24;1775834;79;25650;-86
2022/01/15 04:27:33;;;;;;;31.90;11.05;;;;;;;-0.26;72.15;98046.73;1775832;79;25817;-87
2022/01/15 04:30:04;;;;;;;26.97;11.08;;;;;;;-0.37;72.15;98047.64;1775788;80;26639;-86
2022/01/15 04:32:28;;;;;;;22.37;9.63;;;;;;;-0.42;72.26;98052.47;1775108;79;25797;-86
2022/01/15 04:34:55;;;;;;;30.00;11.08;;;;;;;-0.43;72.27;98054.77;1775689;80;27544;-87
2022/01/15 04:37:24;;;;;;;26.60;12.07;;;;;;;-0.49;72.21;98047.33;1775770;79;25698;-86
2022/01/15 04:39:51;;;;;;;26.97;11.28;;;;;;;-0.52;72.32;98054.20;1730792;81;25728;-86
2022/01/15 04:42:20;;;;;;;31.17;12.23;;;;;;;-0.52;72.28;98050.23;1736236;82;25866;-86
2022/01/15 04:44:46;;;;;;;27.42;13.18;;;;;;;-0.59;72.25;98044.21;1736047;82;25821;-86
2022/01/15 04:47:12;;;;;;;27.80;12.37;;;;;;;-0.63;72.30;98044.97;1736301;82;27472;-86
2022/01/15 04:49:39;;;;;;;27.45;13.13;;;;;;;-0.65;72.37;98048.22;1736195;82;25716;-85
2022/01/15 04:52:06;;;;;;;29.65;11.97;;;;;;;-0.66;72.34;98047.86;1736357;82;26088;-85
2022/01/15 04:54:34;;;;;;;26.33;11.38;;;;;;;-0.64;72.58;98045.09;1736422;82;25684;-85
2022/01/15 04:57:01;;;;;;;24.18;10.55;;;;;;;-0.61;72.53;98054.12;1736054;82;25295;-85
2022/01/15 04:59:28;;;;;;;26.07;11.22;;;;;;;-0.54;72.68;98054.81;1736235;82;27369;-85
2022/01/15 05:01:55;;;;;;;32.13;10.85;;;;;;;-0.59;72.47;98055.66;1736283;82;25867;-85
2022/01/15 05:04:21;;;;;;;28.12;10.93;;;;;;;-0.60;72.60;98060.60;1736257;82;25752;-85
2022/01/15 05:06:48;;;;;;;28.30;10.60;;;;;;;-0.53;72.72;98069.76;1736264;82;26455;-85
2022/01/15 05:09:14;;;;;;;28.92;10.68;;;;;;;-0.46;72.76;98073.58;1736339;82;25638;-85
2022/01/15 05:11:59;;;;;;;26.00;10.63;;;;;;;-0.43;72.59;98074.66;1736187;82;27464;-85
2022/01/15 05:14:17;;;;;;;26.12;10.68;;;;;;;-0.50;72.40;98074.81;1733925;82;25717;-85
2022/01/15 05:16:44;;;;;;;21.05;11.35;;;;;;;-0.59;72.41;98079.53;1736180;82;25771;-85
2022/01/15 05:19:11;;;;;;;70.42;33.80;;;;;;;-0.56;72.52;98076.62;1736218;82;26732;-85
2022/01/15 05:21:38;;;;;;;57.23;25.57;;;;;;;-0.59;72.35;98079.53;1736376;82;25832;-84
2022/01/15 05:24:06;;;;;;;53.80;23.85;;;;;;;-0.66;72.26;98074.86;1736025;82;27439;-84
2022/01/15 05:26:34;;;;;;;51.80;23.77;;;;;;;-0.70;72.28;98079.56;1736254;82;26547;-84
2022/01/15 05:29:01;;;;;;;56.85;26.90;;;;;;;-0.75;72.23;98085.25;1736256;82;25662;-84
2022/01/15 05:31:27;;;;;;;48.28;23.92;;;;;;;-0.76;72.23;98084.05;1736341;82;25722;-84
2022/01/15 05:33:55;;;;;;;48.10;25.88;;;;;;;-0.83;72.25;98082.36;1736364;82;25747;-84
2022/01/15 05:36:21;;;;;;;42.50;21.40;;;;;;;-0.85;72.32;98082.16;1731521;82;27479;-86
2022/01/15 05:38:48;;;;;;;47.75;20.57;;;;;;;-0.88;72.32;98090.34;1730752;82;25790;-85
2022/01/15 05:41:15;;;;;;;35.92;17.73;;;;;;;-0.92;72.28;98078.30;1730797;82;25279;-85
2022/01/15 05:43:42;;;;;;;31.02;14.33;;;;;;;-0.96;72.27;98076.84;1730764;82;25707;-85
2022/01/15 05:46:08;;;;;;;47.83;21.82;;;;;;;-1.11;72.22;98075.81;1730795;82;25673;-85
2022/01/15 05:48:35;;;;;;;53.98;25.68;;;;;;;-1.17;72.29;98080.25;1730803;82;27526;-85
2022/01/15 05:51:01;;;;;;;48.70;22.20;;;;;;;-1.20;72.41;98084.95;1730671;82;25765;-85
2022/01/15 05:53:28;;;;;;;42.83;19.42;;;;;;;-1.18;72.68;98083.02;1730773;82;25935;-85
2022/01/15 05:55:54;;;;;;;32.33;12.88;;;;;;;-1.18;72.62;98085.67;1730753;82;25736;-85
2022/01/15 05:58:21;;;;;;;25.25;10.65;;;;;;;-1.16;72.83;98087.72;1730776;82;25696;-84
2022/01/15 06:00:48;;;;;;;20.40;9.13;;;;;;;-1.09;73.02;98091.08;1730829;82;28404;-84
2022/01/15 06:03:14;;;;;;;23.67;10.13;;;;;;;-0.99;73.05;98093.02;1730640;82;25725;-84
2022/01/15 06:05:41;;;;;;;26.85;8.80;;;;;;;-0.90;73.11;98094.92;1730799;82;25702;-84
2022/01/15 06:08:07;;;;;;;18.67;7.67;;;;;;;-0.80;73.04;98087.91;1706407;84;25796;-85
2022/01/15 06:10:34;;;;;;;21.42;8.30;;;;;;;-0.70;72.97;98086.67;1735734;82;25789;-84
2022/01/15 06:13:01;;;;;;;20.85;7.67;;;;;;;-0.62;72.86;98090.41;1769976;81;28116;-85
2022/01/15 06:15:27;;;;;;;18.37;7.42;;;;;;;-0.55;72.74;98096.88;1769903;81;25766;-85
2022/01/15 06:17:54;;;;;;;25.35;9.53;;;;;;;-0.50;72.72;98101.34;1770015;81;25750;-84
2022/01/15 06:20:21;;;;;;;22.65;6.90;;;;;;;-0.46;72.62;98088.16;1770008;81;26471;-85
2022/01/15 06:22:47;;;;;;;21.33;7.20;;;;;;;-0.42;72.52;98096.23;1770041;81;26235;-85
2022/01/15 06:25:14;;;;;;;23.95;8.58;;;;;;;-0.38;72.42;98093.70;1769796;81;27437;-84
2022/01/15 06:27:40;;;;;;;31.30;10.68;;;;;;;-0.34;72.35;98086.79;1769561;80;25873;-85
2022/01/15 06:30:07;;;;;;;25.60;8.05;;;;;;;-0.30;72.29;98084.25;1744930;80;25914;-85
2022/01/15 06:32:36;;;;;;;22.00;8.08;;;;;;;-0.29;72.19;98087.27;1770136;80;25713;-85
2022/01/15 06:35:14;;;;;;;22.65;7.78;;;;;;;-0.29;72.10;98077.98;1769894;80;25742;-85
2022/01/15 06:37:41;;;;;;;22.13;8.38;;;;;;;-0.27;72.04;98082.20;1769985;81;28232;-85
2022/01/15 06:40:09;;;;;;;23.95;7.05;;;;;;;-0.26;71.95;98087.02;1769847;81;25749;-85
2022/01/15 06:42:36;;;;;;;16.67;6.80;;;;;;;-0.24;71.87;98087.73;1769914;81;25762;-85
2022/01/15 06:45:04;;;;;;;15.53;6.10;;;;;;;-0.25;71.75;98099.31;1769962;80;25861;-85
2022/01/15 06:47:31;;;;;;;17.52;6.50;;;;;;;-0.22;71.69;98099.04;1769990;81;25766;-86
2022/01/15 06:49:58;;;;;;;20.95;6.50;;;;;;;-0.23;71.63;98105.31;1769970;80;27188;-85
2022/01/15 06:52:24;;;;;;;17.48;6.60;;;;;;;-0.21;71.59;98106.03;1769842;81;25708;-85
2022/01/15 06:54:51;;;;;;;16.37;6.55;;;;;;;-0.19;71.45;98102.77;1769890;81;25806;-85
2022/01/15 06:57:17;;;;;;;16.50;6.25;;;;;;;-0.17;71.39;98102.17;1769988;81;25850;-85
2022/01/15 06:59:44;;;;;;;23.42;10.88;;;;;;;-0.14;71.34;98108.55;1769978;81;25741;-84
2022/01/15 07:02:11;;;;;;;38.53;15.55;;;;;;;-0.11;71.27;98110.93;1770035;81;27373;-85
2022/01/15 07:04:38;;;;;;;33.90;15.93;;;;;;;-0.12;71.14;98109.27;1769858;81;25685;-85
2022/01/15 07:07:05;;;;;;;30.35;13.03;;;;;;;-0.16;71.09;98103.85;1769939;80;26274;-84
2022/01/15 07:09:32;;;;;;;56.13;16.23;;;;;;;-0.16;71.09;98109.16;1769974;80;25734;-85
2022/01/15 07:11:59;;;;;;;44.18;13.75;;;;;;;-0.12;71.05;98107.95;1735848;81;25701;-84
2022/01/15 07:14:26;;;;;;;54.45;18.35;;;;;;;-0.10;70.99;98113.46;1735693;82;28379;-85
2022/01/15 07:16:52;;;;;;;42.73;16.23;;;;;;;-0.13;70.86;98111.57;1735563;81;25669;-85
2022/01/15 07:19:19;;;;;;;42.70;15.93;;;;;;;-0.18;70.81;98123.03;1735479;81;25721;-84
2022/01/15 07:21:46;;;;;;;43.52;17.32;;;;;;;-0.22;70.79;98129.55;1735666;82;25839;-84
2022/01/15 07:24:14;;;;;;;40.05;14.87;;;;;;;-0.26;70.84;98140.08;1770054;80;25743;-85
2022/01/15 07:26:41;;;;;;;37.17;15.38;;;;;;;-0.30;70.91;98140.80;1769891;80;27537;-85
2022/01/15 07:29:14;;;;;;;26.95;10.65;;;;;;;-0.26;70.98;98138.75;1735579;82;25362;-85
2022/01/15 07:31:36;;;;;;;33.75;13.45;;;;;;;-0.21;70.96;98142.70;1734790;81;25763;-85
2022/01/15 07:34:03;;;;;;;35.05;14.28;;;;;;;-0.22;70.86;98150.30;1735756;81;26473;-85
2022/01/15 07:36:30;;;;;;;27.37;13.25;;;;;;;-0.24;70.93;98154.07;1769856;80;25782;-85
2022/01/15 07:38:57;;;;;;;38.65;13.58;;;;;;;-0.24;71.00;98152.23;1770003;80;27644;-85
2022/01/15 07:41:23;;;;;;;36.88;14.10;;;;;;;-0.24;70.92;98154.07;1770059;80;25998;-86
2022/01/15 07:43:50;;;;;;;39.18;14.80;;;;;;;-0.17;70.91;98151.26;1770191;80;26430;-85
2022/01/15 07:46:17;;;;;;;35.68;13.60;;;;;;;-0.11;70.84;98154.23;1770196;80;25870;-86
2022/01/15 07:48:44;;;;;;;28.62;10.98;;;;;;;-0.08;70.76;98162.44;1770159;80;25758;-85
2022/01/15 07:51:10;;;;;;;25.25;10.55;;;;;;;-0.07;70.77;98166.77;1770166;80;27346;-86
2022/01/15 07:53:37;;;;;;;24.80;9.43;;;;;;;-0.04;70.74;98167.86;1769993;80;25793;-85
2022/01/15 07:56:04;;;;;;;29.75;10.55;;;;;;;0.03;70.75;98161.06;1770084;81;25809;-86
2022/01/15 07:58:31;;;;;;;27.87;9.45;;;;;;;0.13;70.75;98159.80;1770060;80;25769;-85
2022/01/15 08:00:57;;;;;;;18.50;7.60;;;;;;;0.21;70.61;98152.06;1770160;81;25815;-86
2022/01/15 08:03:24;;;;;;;33.48;12.65;;;;;;;0.29;70.80;98154.91;1770022;79;27309;-86
2022/01/15 08:05:50;;;;;;;34.23;13.25;;;;;;;0.46;70.75;98153.48;1770085;81;25792;-85
2022/01/15 08:08:17;;;;;;;32.83;12.68;;;;;;;0.53;70.42;98146.67;1770126;80;26400;-86
2022/01/15 08:10:44;;;;;;;24.15;8.23;;;;;;;0.59;70.27;98148.33;1770081;80;25738;-86
2022/01/15 08:13:11;;;;;;;23.07;8.03;;;;;;;0.66;70.23;98152.62;1770146;80;25724;-86
2022/01/15 08:15:38;;;;;;;25.80;7.75;;;;;;;0.74;70.05;98150.14;1770106;81;27622;-85
2022/01/15 08:18:04;;;;;;;24.80;7.28;;;;;;;0.82;69.95;98153.00;1769823;80;25783;-85
2022/01/15 08:20:31;;;;;;;25.08;9.90;;;;;;;0.90;69.92;98150.52;1769827;81;25799;-85
2022/01/15 08:22:58;;;;;;;20.92;6.10;;;;;;;0.98;69.71;98159.98;1770145;80;25735;-84
2022/01/15 08:25:25;;;;;;;15.65;5.92;;;;;;;1.05;69.58;98157.16;1770104;80;25765;-86
2022/01/15 08:27:55;;;;;;;19.50;5.30;;;;;;;1.11;69.63;98161.09;1770116;80;27667;-87
2022/01/15 08:30:22;;;;;;;16.32;4.92;;;;;;;1.19;69.31;98157.78;1769981;81;25750;-86
2022/01/15 08:32:49;;;;;;;23.98;6.45;;;;;;;1.31;69.20;98151.38;1770134;80;25249;-85
2022/01/15 08:35:16;;;;;;;16.80;5.80;;;;;;;1.42;68.99;98145.46;1770118;80;25690;-83
2022/01/15 08:37:43;;;;;;;19.52;6.90;;;;;;;1.56;68.99;98142.91;1769857;80;25256;-86
2022/01/15 08:40:14;;;;;;;15.68;5.45;;;;;;;1.65;68.74;98143.41;1770089;81;27409;-85
2022/01/15 08:42:41;;;;;;;18.92;5.08;;;;;;;1.78;68.44;98138.66;1770019;81;25974;-85
2022/01/15 08:45:10;;;;;;;21.42;5.80;;;;;;;1.87;68.20;98133.47;1770117;81;25703;-85
2022/01/15 08:47:38;;;;;;;17.30;5.35;;;;;;;1.96;67.90;98131.30;1770133;81;25735;-85
2022/01/15 08:50:07;;;;;;;13.45;5.15;;;;;;;2.07;67.59;98131.16;1770008;81;25253;-87
2022/01/15 08:52:35;;;;;;;21.35;5.83;;;;;;;2.18;67.55;98133.67;1770189;81;28216;-85
2022/01/15 08:55:03;;;;;;;21.35;6.40;;;;;;;2.29;67.49;98136.22;1769643;80;25796;-83
2022/01/15 08:57:30;;;;;;;16.35;5.12;;;;;;;2.42;67.38;98135.89;1766146;80;26243;-85
2022/01/15 08:59:57;;;;;;;24.98;7.58;;;;;;;2.56;66.96;98132.78;1769955;81;26474;-86
2022/01/15 09:02:23;;;;;;;27.62;7.17;;;;;;;2.75;66.75;98139.42;1769998;81;25774;-85
2022/01/15 09:04:50;;;;;;;19.20;6.78;;;;;;;2.90;66.60;98135.77;1770004;81;27454;-86
2022/01/15 09:07:17;;;;;;;19.50;7.50;;;;;;;2.97;66.33;98134.71;1763778;81;25813;-86
2022/01/15 09:09:43;;;;;;;17.48;5.42;;;;;;;3.19;66.36;98132.50;1770055;81;26250;-85
2022/01/15 09:12:11;;;;;;;15.20;5.67;;;;;;;3.46;66.21;98135.68;1770058;81;26522;-85
2022/01/15 09:14:39;;;;;;;25.02;7.03;;;;;;;3.66;65.56;98137.73;1769820;81;25749;-85
2022/01/15 09:17:06;;;;;;;15.10;5.75;;;;;;;3.89;65.47;98142.98;1770062;81;27008;-86
2022/01/15 09:19:34;;;;;;;16.70;5.08;;;;;;;3.98;64.67;98136.72;1770000;80;25642;-86
2022/01/15 09:22:05;;;;;;;16.35;5.45;;;;;;;4.09;64.34;98143.69;1770102;81;25763;-85
2022/01/15 09:24:29;;;;;;;16.75;4.70;;;;;;;4.17;63.95;98138.41;1769457;81;25720;-85
2022/01/15 09:32:12;;;;;;;16.95;6.08;;;;;;;4.32;63.05;98138.72;1769697;81;25689;-87
2022/01/15 09:34:39;;;;;;;16.70;5.85;;;;;;;4.58;63.02;98130.23;1770057;81;25705;-86
2022/01/15 09:37:09;;;;;;;12.95;4.78;;;;;;;4.67;62.48;98127.95;1769793;80;25833;-86
2022/01/15 09:39:36;;;;;;;13.48;5.70;;;;;;;4.74;61.89;98125.97;1770167;81;25687;-87
2022/01/15 09:42:04;;;;;;;16.07;5.45;;;;;;;4.95;61.67;98122.45;1770101;81;27502;-86
2022/01/15 09:44:33;;;;;;;16.37;5.15;;;;;;;5.25;61.57;98120.58;1770001;80;26252;-86
2022/01/15 09:47:01;;;;;;;17.00;5.87;;;;;;;5.54;61.17;98115.35;1770077;80;25766;-88
2022/01/15 09:49:28;;;;;;;18.65;6.33;;;;;;;5.74;60.93;98115.40;1770104;81;26701;-87
2022/01/15 09:51:56;;;;;;;16.82;6.85;;;;;;;5.80;59.92;98112.05;1737408;81;43837;-87
2022/01/15 09:54:23;;;;;;;17.00;5.05;;;;;;;5.86;59.84;98108.73;1769861;81;27500;-88
2022/01/15 09:56:49;;;;;;;14.38;4.97;;;;;;;5.95;59.62;98119.82;1769939;81;25728;-87
2022/01/15 09:59:18;;;;;;;18.55;5.33;;;;;;;5.92;59.25;98117.97;1770064;81;25702;-85
2022/01/15 10:01:46;;;;;;;14.98;4.87;;;;;;;6.06;58.86;98114.14;1770043;81;25785;-87
2022/01/15 10:04:13;;;;;;;12.82;5.45;;;;;;;6.20;58.76;98115.33;1770090;80;25697;-88
2022/01/15 10:07:05;;;;;;;14.05;5.55;;;;;;;6.50;58.49;98124.57;1769992;81;27326;-87
2022/01/15 10:09:32;;;;;;;14.90;5.03;;;;;;;6.79;58.15;98120.83;1769584;81;25665;-88
2022/01/15 10:11:59;;;;;;;9.88;4.35;;;;;;;7.10;57.43;98116.09;1769805;81;25725;-87
2022/01/15 10:14:31;;;;;;;11.38;4.97;;;;;;;7.34;56.38;98113.33;1770078;81;25773;-86
2022/01/15 10:17:00;;;;;;;16.70;5.75;;;;;;;7.48;56.57;98113.94;1770307;80;29657;-86
2022/01/15 10:19:35;;;;;;;14.05;6.28;;;;;;;7.64;55.18;98121.57;1770008;81;27391;-85
2022/01/15 10:22:11;;;;;;;13.13;5.95;;;;;;;7.60;55.16;98117.08;1770057;81;25710;-89
2022/01/15 10:24:40;;;;;;;13.32;5.83;;;;;;;7.63;54.88;98109.14;1770095;80;25672;-87
2022/01/15 10:27:32;;;;;;;16.82;6.40;;;;;;;7.73;54.81;98113.28;1770076;80;26709;-88
2022/01/15 10:30:17;;;;;;;16.05;6.70;;;;;;;7.69;53.61;98108.45;1770129;81;25832;-87
2022/01/15 10:33:03;;;;;;;15.65;5.80;;;;;;;7.67;53.64;98119.37;1770157;81;28083;-87
2022/01/15 10:35:42;;;;;;;16.62;6.37;;;;;;;7.59;53.54;98118.09;1769942;80;25818;-86
2022/01/15 10:38:13;;;;;;;11.93;5.53;;;;;;;7.71;53.28;98117.19;1774302;80;26305;-86
2022/01/15 10:40:53;;;;;;;14.55;5.67;;;;;;;7.71;52.54;98122.56;1775854;80;26494;-86
2022/01/15 10:43:20;;;;;;;12.15;6.17;;;;;;;7.82;52.62;98117.63;1775957;80;25451;-87
2022/01/15 10:45:57;;;;;;;13.75;6.45;;;;;;;7.85;52.14;98119.09;1775840;80;27472;-86
2022/01/15 10:48:31;;;;;;;10.75;5.72;;;;;;;8.18;52.26;98120.59;1775664;80;26253;-86
2022/01/15 10:51:05;;;;;;;14.35;5.53;;;;;;;8.45;52.24;98116.52;1775745;80;25849;-85
2022/01/15 10:53:42;;;;;;;11.28;5.67;;;;;;;8.67;51.79;98109.47;1775743;80;25911;-85
2022/01/15 10:56:11;;;;;;;12.55;5.78;;;;;;;8.86;51.37;98115.66;1774733;80;25667;-85
2022/01/15 10:58:41;;;;;;;11.78;5.72;;;;;;;9.10;51.28;98120.47;1774477;80;27405;-85
2022/01/15 11:01:13;;;;;;;16.65;6.00;;;;;;;9.33;50.58;98118.53;1775751;80;25644;-83
2022/01/15 11:03:45;;;;;;;16.82;6.10;;;;;;;9.44;50.22;98119.41;1775986;80;25671;-84
2022/01/15 11:06:12;;;;;;;;;;;;;;;9.16;48.78;98113.86;1778221;80;25746;-86
2022/01/15 11:08:43;;;;;;;17.30;7.20;;;;;;;9.34;48.68;98115.65;1775884;80;25213;-84
2022/01/15 11:11:14;;;;;;;20.25;7.35;;;;;;;9.51;49.31;98114.12;1775828;80;27398;-84
2022/01/15 11:13:44;;;;;;;15.00;6.50;;;;;;;9.64;49.03;98112.44;1775811;80;25671;-84
2022/01/15 11:16:14;;;;;;;12.35;5.65;;;;;;;9.72;48.79;98113.66;1775914;80;25704;-86
2022/01/15 11:18:44;;;;;;;13.65;5.75;;;;;;;9.80;48.38;98107.31;1775925;80;25853;-85
2022/01/15 11:21:16;;;;;;;17.23;7.50;;;;;;;9.68;47.72;98108.31;1775651;80;25711;-85
2022/01/15 11:23:45;;;;;;;14.20;6.62;;;;;;;9.82;47.42;98107.12;1775738;79;27410;-84
2022/01/15 11:26:24;;;;;;;14.58;6.33;;;;;;;9.93;47.23;98107.47;1775854;80;25739;-86
2022/01/15 11:28:53;;;;;;;14.50;6.75;;;;;;;10.08;47.35;98106.09;1776101;79;25733;-86
2022/01/15 11:31:26;;;;;;;15.98;6.03;;;;;;;10.29;47.45;98104.78;1775947;79;25962;-85
2022/01/15 11:33:56;;;;;;;15.28;6.42;;;;;;;10.40;47.04;98102.91;1775886;79;25723;-85
2022/01/15 11:36:43;;;;;;;15.45;6.08;;;;;;;10.49;46.34;98096.89;1776036;80;27533;-85
2022/01/15 11:39:12;;;;;;;15.13;6.22;;;;;;;10.45;46.41;98092.38;1743167;81;25794;-84
2022/01/15 11:41:52;;;;;;;14.15;6.58;;;;;;;10.33;45.83;98089.05;1743606;81;25681;-85
2022/01/15 11:44:33;;;;;;;15.30;6.90;;;;;;;10.32;46.00;98088.20;1743475;81;26260;-85
2022/01/15 11:47:21;;;;;;;18.12;8.38;;;;;;;10.30;45.66;98088.91;1743863;81;25738;-85
2022/01/15 11:49:49;;;;;;;16.25;6.58;;;;;;;10.11;45.07;98093.57;1743619;81;27445;-85
2022/01/15 11:52:24;;;;;;;16.23;7.35;;;;;;;9.84;44.95;98093.79;1743436;82;25862;-84
2022/01/15 11:55:04;;;;;;;18.98;7.92;;;;;;;9.70;44.84;98088.75;1743581;81;25836;-83
2022/01/15 11:57:36;;;;;;;17.50;8.20;;;;;;;9.72;45.28;98093.95;1743621;81;25658;-86
2022/01/15 12:00:20;;;;;;;;;;;;;;;9.78;44.78;98092.38;1746202;82;25750;-85
2022/01/15 12:03:04;;;;;;;22.65;9.08;;;;;;;9.93;44.09;98083.71;1743677;81;28167;-87
2022/01/15 12:05:40;;;;;;;19.27;9.05;;;;;;;9.92;44.51;98082.04;1742486;82;25691;-86